createdAt,value
2023-03-02T00:01:57.419Z,-0.66
2023-03-02T00:04:34.799Z,-0.66
2023-03-02T00:07:05.992Z,-0.62
2023-03-02T00:09:34.337Z,-0.57
2023-03-02T00:12:03.140Z,-0.56
2023-03-02T00:14:33.193Z,-0.56
2023-03-02T00:17:02.880Z,-0.56
2023-03-02T00:19:31.356Z,-0.50
2023-03-02T00:21:59.655Z,-0.42
2023-03-02T00:24:27.868Z,-0.38
2023-03-02T00:26:57.402Z,-0.39
2023-03-02T00:29:26.131Z,-0.42
2023-03-02T00:31:55.187Z,-0.45
2023-03-02T00:34:23.681Z,-0.40
2023-03-02T00:36:52.823Z,-0.33
2023-03-02T00:39:22.362Z,-0.31
2023-03-02T00:41:51.307Z,-0.35
2023-03-02T00:44:19.963Z,-0.40
2023-03-02T00:46:48.275Z,-0.45
2023-03-02T00:49:17.884Z,-0.43
2023-03-02T00:51:49.050Z,-0.39
2023-03-02T00:54:19.752Z,-0.42
2023-03-02T00:56:48.013Z,-0.49
2023-03-02T00:59:28.983Z,-0.54
2023-03-02T01:02:08.838Z,-0.52
2023-03-02T01:04:39.000Z,-0.51
2023-03-02T01:08:41.649Z,-0.54
2023-03-02T01:11:17.235Z,-0.60
2023-03-02T01:13:46.184Z,-0.61
2023-03-02T01:16:14.647Z,-0.57
2023-03-02T01:18:44.843Z,-0.50
2023-03-02T01:21:14.290Z,-0.50
2023-03-02T01:23:42.720Z,-0.53
2023-03-02T01:26:11.872Z,-0.58
2023-03-02T01:28:40.370Z,-0.55
2023-03-02T01:31:10.344Z,-0.51
2023-03-02T01:33:38.581Z,-0.54
2023-03-02T01:36:07.477Z,-0.59
2023-03-02T01:38:36.582Z,-0.63
2023-03-02T01:41:05.208Z,-0.61
2023-03-02T01:43:34.369Z,-0.56
2023-03-02T01:46:15.093Z,-0.57
2023-03-02T01:49:06.289Z,-0.62
2023-03-02T01:52:01.394Z,-0.68
2023-03-02T01:54:30.351Z,-0.66
2023-03-02T01:57:01.444Z,-0.66
2023-03-02T01:59:30.893Z,-0.71
2023-03-02T02:02:00.689Z,-0.77
2023-03-02T02:04:37.771Z,-0.85
2023-03-02T02:07:07.481Z,-0.89
2023-03-02T02:09:47.569Z,-0.88
2023-03-02T02:12:19.756Z,-0.86
2023-03-02T02:14:48.356Z,-0.89
2023-03-02T02:17:18.521Z,-0.96
2023-03-02T02:20:09.970Z,-1.04
2023-03-02T02:23:07.759Z,-1.11
2023-03-02T02:26:02.103Z,-1.11
2023-03-02T02:28:33.738Z,-1.14
2023-03-02T02:31:22.819Z,-1.17
2023-03-02T02:33:52.300Z,-1.22
2023-03-02T02:36:25.963Z,-1.29
2023-03-02T02:38:57.708Z,-1.33
2023-03-02T02:41:28.664Z,-1.32
2023-03-02T02:43:58.773Z,-1.30
2023-03-02T02:46:28.071Z,-1.30
2023-03-02T02:49:00.934Z,-1.35
2023-03-02T02:51:29.926Z,-1.41
2023-03-02T02:54:00.476Z,-1.45
2023-03-02T02:56:37.320Z,-1.42
2023-03-02T02:59:08.391Z,-1.39
2023-03-02T03:01:37.892Z,-1.43
2023-03-02T03:04:07.244Z,-1.50
2023-03-02T03:06:42.755Z,-1.56
2023-03-02T03:09:12.934Z,-1.52
2023-03-02T03:11:47.035Z,-1.45
2023-03-02T03:14:17.830Z,-1.43
2023-03-02T03:16:48.736Z,-1.47
2023-03-02T03:19:27.878Z,-1.52
2023-03-02T03:21:58.497Z,-1.51
2023-03-02T03:24:32.351Z,-1.46
2023-03-02T03:27:01.651Z,-1.45
2023-03-02T03:29:31.371Z,-1.49
2023-03-02T03:32:01.465Z,-1.56
2023-03-02T03:34:40.729Z,-1.60
2023-03-02T03:37:16.539Z,-1.58
2023-03-02T03:39:45.009Z,-1.58
2023-03-02T03:42:13.446Z,-1.63
2023-03-02T03:44:41.958Z,-1.68
2023-03-02T03:47:10.856Z,-1.74
2023-03-02T03:49:39.388Z,-1.73
2023-03-02T03:52:07.839Z,-1.70
2023-03-02T03:54:37.637Z,-1.70
2023-03-02T03:57:06.467Z,-1.75
2023-03-02T03:59:36.384Z,-1.81
2023-03-02T04:02:08.365Z,-1.88
2023-03-02T04:04:40.699Z,-1.87
2023-03-02T04:07:20.747Z,-1.83
2023-03-02T04:09:49.297Z,-1.83
2023-03-02T04:12:22.110Z,-1.88
2023-03-02T04:14:53.732Z,-1.92
2023-03-02T04:17:21.977Z,-1.96
2023-03-02T04:19:52.388Z,-1.93
2023-03-02T04:22:21.902Z,-1.88
2023-03-02T04:24:50.404Z,-1.86
2023-03-02T04:27:19.305Z,-1.89
2023-03-02T04:29:48.415Z,-1.92
2023-03-02T04:32:17.020Z,-1.88
2023-03-02T04:34:48.563Z,-1.84
2023-03-02T04:37:16.785Z,-1.82
2023-03-02T04:39:47.494Z,-1.85
2023-03-02T04:42:21.178Z,-1.88
2023-03-02T04:44:49.496Z,-1.90
2023-03-02T04:47:17.679Z,-1.88
2023-03-02T04:49:45.936Z,-1.83
2023-03-02T04:52:17.894Z,-1.86
2023-03-02T04:54:46.092Z,-1.91
2023-03-02T04:57:14.263Z,-1.95
2023-03-02T04:59:42.627Z,-1.92
2023-03-02T05:02:11.052Z,-1.87
2023-03-02T05:04:41.144Z,-1.84
2023-03-02T05:07:09.850Z,-1.86
2023-03-02T05:09:38.025Z,-1.89
2023-03-02T05:12:06.793Z,-1.88
2023-03-02T05:14:35.084Z,-1.82
2023-03-02T05:17:06.692Z,-1.77
2023-03-02T05:19:34.894Z,-1.78
2023-03-02T05:22:03.208Z,-1.78
2023-03-02T05:24:31.890Z,-1.77
2023-03-02T05:27:03.066Z,-1.68
2023-03-02T05:29:31.693Z,-1.60
2023-03-02T05:32:00.078Z,-1.54
2023-03-02T05:34:29.511Z,-1.54
2023-03-02T05:36:58.244Z,-1.52
2023-03-02T05:39:27.598Z,-1.44
2023-03-02T05:41:55.952Z,-1.36
2023-03-02T05:44:24.167Z,-1.30
2023-03-02T05:46:52.722Z,-1.28
2023-03-02T05:49:21.494Z,-1.20
2023-03-02T05:51:49.603Z,-1.10
2023-03-02T05:54:18.028Z,-1.00
2023-03-02T05:56:46.325Z,-0.98
2023-03-02T05:59:14.481Z,-0.94
2023-03-02T06:01:42.845Z,-0.83
2023-03-02T06:04:11.653Z,-0.66
2023-03-02T06:06:40.139Z,-0.50
2023-03-02T06:09:10.178Z,-0.38
2023-03-02T06:11:39.247Z,-0.26
2023-03-02T06:14:07.526Z,-0.11
2023-03-02T06:16:37.417Z,0.10
2023-03-02T06:19:06.056Z,0.23
2023-03-02T06:21:34.679Z,0.33
2023-03-02T06:24:02.830Z,0.43
2023-03-02T06:26:31.651Z,0.54
2023-03-02T06:29:00.332Z,0.66
2023-03-02T06:31:29.266Z,0.87
2023-03-02T06:33:58.337Z,1.04
2023-03-02T06:36:27.005Z,1.23
2023-03-02T06:38:57.460Z,1.37
2023-03-02T06:41:26.013Z,1.44
2023-03-02T06:43:54.212Z,1.49
2023-03-02T06:46:22.395Z,1.57
2023-03-02T06:48:50.611Z,1.65
2023-03-02T06:51:19.027Z,1.83
2023-03-02T06:53:47.420Z,1.91
2023-03-02T06:56:15.821Z,2.08
2023-03-02T06:58:44.297Z,2.19
2023-03-02T07:01:12.494Z,2.20
2023-03-02T07:03:41.436Z,2.19
2023-03-02T07:06:10.420Z,2.21
2023-03-02T07:08:38.761Z,2.24
2023-03-02T07:11:08.468Z,2.33
2023-03-02T07:13:38.307Z,2.46
2023-03-02T07:16:13.121Z,2.59
2023-03-02T07:18:41.296Z,2.79
2023-03-02T07:21:09.578Z,2.87
2023-03-02T07:23:37.775Z,2.89
2023-03-02T07:26:08.645Z,3.01
2023-03-02T07:28:43.518Z,3.13
2023-03-02T07:31:11.970Z,3.20
2023-03-02T07:33:40.354Z,3.26
2023-03-02T07:36:08.934Z,3.39
2023-03-02T07:38:38.171Z,3.47
2023-03-02T07:41:09.035Z,3.50
2023-03-02T07:43:37.401Z,3.53
2023-03-02T07:46:06.565Z,3.60
2023-03-02T07:48:35.833Z,3.74
2023-03-02T07:51:05.875Z,3.90
2023-03-02T07:53:34.485Z,4.07
2023-03-02T07:56:10.250Z,4.31
2023-03-02T07:58:38.526Z,4.48
2023-03-02T08:01:06.813Z,4.53
2023-03-02T08:03:35.801Z,4.61
2023-03-02T08:06:06.043Z,4.68
2023-03-02T08:08:36.557Z,4.72
2023-03-02T08:11:09.451Z,4.82
2023-03-02T08:13:42.318Z,4.89
2023-03-02T08:16:13.159Z,4.89
2023-03-02T08:18:41.795Z,4.87
2023-03-02T08:21:14.615Z,4.80
2023-03-02T08:23:43.450Z,4.78
2023-03-02T08:26:14.312Z,4.84
2023-03-02T08:28:44.196Z,4.94
2023-03-02T08:31:14.373Z,5.06
2023-03-02T08:33:43.016Z,5.21
2023-03-02T08:36:13.956Z,5.30
2023-03-02T08:38:42.164Z,5.48
2023-03-02T08:41:16.349Z,5.64
2023-03-02T08:43:44.518Z,5.70
2023-03-02T08:46:17.306Z,5.69
2023-03-02T08:48:46.871Z,5.77
2023-03-02T08:51:17.858Z,5.84
2023-03-02T08:53:48.000Z,5.92
2023-03-02T08:56:16.984Z,6.04
2023-03-02T08:58:45.179Z,6.14
2023-03-02T09:01:32.922Z,6.28
2023-03-02T09:04:01.814Z,6.41
2023-03-02T09:06:32.331Z,6.42
2023-03-02T09:09:00.551Z,6.52
2023-03-02T09:11:29.466Z,6.62
2023-03-02T09:13:58.700Z,6.66
2023-03-02T09:16:27.178Z,6.72
2023-03-02T09:18:55.740Z,6.80
2023-03-02T09:21:24.563Z,6.93
2023-03-02T09:23:58.444Z,6.98
2023-03-02T09:26:27.165Z,7.04
2023-03-02T09:28:55.803Z,7.20
2023-03-02T09:31:24.219Z,7.20
2023-03-02T09:33:52.566Z,7.08
2023-03-02T09:36:22.365Z,6.99
2023-03-02T09:38:50.644Z,6.94
2023-03-02T09:41:21.777Z,6.92
2023-03-02T09:44:10.500Z,6.96
2023-03-02T09:46:54.204Z,7.12
2023-03-02T09:49:53.781Z,7.25
2023-03-02T09:52:30.460Z,7.44
2023-03-02T09:55:16.303Z,7.62
2023-03-02T09:57:46.429Z,7.85
2023-03-02T10:00:36.288Z,8.01
2023-03-02T10:03:16.974Z,8.16
2023-03-02T10:05:51.327Z,8.20
2023-03-02T10:08:29.674Z,8.32
2023-03-02T10:11:49.248Z,8.38
2023-03-02T10:14:17.490Z,8.30
2023-03-02T10:16:53.047Z,8.14
2023-03-02T10:19:21.419Z,8.04
2023-03-02T10:21:57.405Z,7.80
2023-03-02T10:24:31.474Z,7.53
2023-03-02T10:27:02.510Z,7.30
2023-03-02T10:29:57.135Z,7.23
2023-03-02T10:32:28.041Z,7.18
2023-03-02T10:35:01.436Z,7.19
2023-03-02T10:37:30.600Z,7.22
2023-03-02T10:40:03.244Z,7.18
2023-03-02T10:42:35.999Z,7.12
2023-03-02T10:45:29.253Z,7.06
2023-03-02T10:48:09.329Z,7.07
2023-03-02T10:50:37.645Z,7.08
2023-03-02T10:53:16.842Z,7.04
2023-03-02T10:55:50.497Z,7.01
2023-03-02T10:58:32.528Z,7.00
2023-03-02T11:01:05.264Z,6.96
2023-03-02T11:03:34.918Z,6.98
2023-03-02T11:06:18.663Z,6.95
2023-03-02T11:08:46.972Z,6.93
2023-03-02T11:11:22.539Z,6.98
2023-03-02T11:13:50.855Z,6.98
2023-03-02T11:16:18.988Z,7.03
2023-03-02T11:18:49.918Z,7.06
2023-03-02T11:21:22.929Z,7.08
2023-03-02T11:24:07.166Z,7.07
2023-03-02T11:26:40.170Z,7.02
2023-03-02T11:29:46.466Z,7.02
2023-03-02T11:32:22.695Z,7.04
2023-03-02T11:35:06.541Z,6.98
2023-03-02T11:37:52.467Z,6.92
2023-03-02T11:40:47.220Z,6.89
2023-03-02T11:43:16.455Z,6.90
2023-03-02T11:45:46.980Z,6.91
2023-03-02T11:48:34.221Z,6.94
2023-03-02T11:51:03.889Z,6.94
2023-03-02T11:53:36.662Z,6.93
2023-03-02T11:56:05.250Z,6.96
2023-03-02T11:58:34.239Z,6.94
2023-03-02T12:01:02.715Z,6.89
2023-03-02T12:03:31.783Z,6.88
2023-03-02T12:06:06.061Z,6.88
2023-03-02T12:08:46.133Z,6.83
2023-03-02T12:11:17.691Z,6.76
2023-03-02T12:13:58.326Z,6.70
2023-03-02T12:16:37.235Z,6.66
2023-03-02T12:19:25.888Z,6.66
2023-03-02T12:22:03.108Z,6.73
2023-03-02T12:24:33.819Z,6.75
2023-03-02T12:27:07.747Z,6.76
2023-03-02T12:29:51.092Z,6.78
2023-03-02T12:32:30.160Z,6.82
2023-03-02T12:35:04.021Z,6.85
2023-03-02T12:37:53.440Z,6.86
2023-03-02T12:40:39.661Z,6.88
2023-03-02T12:43:20.147Z,6.84
2023-03-02T12:46:13.799Z,6.79
2023-03-02T12:48:43.018Z,6.77
2023-03-02T12:51:21.548Z,6.76
2023-03-02T12:53:50.540Z,6.75
2023-03-02T12:56:24.626Z,6.74
2023-03-02T12:58:53.322Z,6.71
2023-03-02T13:01:26.106Z,6.70
2023-03-02T13:03:54.936Z,6.68
2023-03-02T13:06:24.239Z,6.66
2023-03-02T13:08:57.021Z,6.66
2023-03-02T13:11:28.731Z,6.67
2023-03-02T13:14:03.699Z,6.64
2023-03-02T13:16:35.294Z,6.63
2023-03-02T13:19:16.591Z,6.64
2023-03-02T13:21:44.799Z,6.62
2023-03-02T13:25:29.916Z,6.61
2023-03-02T13:28:07.963Z,6.61
2023-03-02T13:30:47.988Z,6.61
2023-03-02T13:33:22.356Z,6.58
2023-03-02T13:35:50.991Z,6.51
2023-03-02T13:38:33.705Z,6.47
2023-03-02T13:41:02.317Z,6.44
2023-03-02T13:43:30.561Z,6.43
2023-03-02T13:46:00.365Z,6.43
2023-03-02T13:48:34.223Z,6.39
2023-03-02T13:51:19.023Z,6.36
2023-03-02T13:53:55.134Z,6.33
2023-03-02T13:56:32.470Z,6.32
2023-03-02T13:59:04.886Z,6.32
2023-03-02T14:01:33.329Z,6.33
2023-03-02T14:04:02.917Z,6.36
2023-03-02T14:06:32.278Z,6.39
2023-03-02T14:09:00.657Z,6.40
2023-03-02T14:11:37.725Z,6.39
2023-03-02T14:14:06.475Z,6.40
2023-03-02T14:16:36.237Z,6.39
2023-03-02T14:19:13.902Z,6.36
2023-03-02T14:21:43.571Z,6.31
2023-03-02T14:24:11.850Z,6.25
2023-03-02T14:26:44.738Z,6.21
2023-03-02T14:29:22.023Z,6.16
2023-03-02T14:31:50.540Z,6.07
2023-03-02T14:34:19.400Z,5.97
2023-03-02T14:36:49.668Z,5.88
2023-03-02T14:39:28.923Z,5.82
2023-03-02T14:41:57.325Z,5.76
2023-03-02T14:44:26.979Z,5.72
2023-03-02T14:46:57.128Z,5.69
2023-03-02T14:49:26.456Z,5.66
2023-03-02T14:52:08.857Z,5.63
2023-03-02T14:54:57.912Z,5.60
2023-03-02T14:57:27.800Z,5.57
2023-03-02T14:59:56.465Z,5.54
2023-03-02T15:02:26.443Z,5.50
2023-03-02T15:05:15.127Z,5.46
2023-03-02T15:07:44.482Z,5.39
2023-03-02T15:10:20.891Z,5.32
2023-03-02T15:12:49.243Z,5.23
2023-03-02T15:15:17.542Z,5.15
2023-03-02T15:17:45.746Z,5.06
2023-03-02T15:20:17.462Z,4.98
2023-03-02T15:22:46.919Z,4.90
2023-03-02T15:25:15.406Z,4.83
2023-03-02T15:27:43.980Z,4.76
2023-03-02T15:30:12.674Z,4.69
2023-03-02T15:32:40.950Z,4.61
2023-03-02T15:35:10.020Z,4.55
2023-03-02T15:37:39.291Z,4.47
2023-03-02T15:40:08.546Z,4.39
2023-03-02T15:42:37.238Z,4.31
2023-03-02T15:45:06.005Z,4.24
2023-03-02T15:47:34.406Z,4.19
2023-03-02T15:50:02.593Z,4.12
2023-03-02T15:52:31.795Z,4.06
2023-03-02T15:55:00.017Z,4.00
2023-03-02T15:57:28.366Z,3.93
2023-03-02T15:59:57.105Z,3.84
2023-03-02T16:02:25.266Z,3.75
2023-03-02T16:04:58.660Z,3.67
2023-03-02T16:07:27.983Z,3.61
2023-03-02T16:09:56.232Z,3.61
2023-03-02T16:12:25.484Z,3.62
2023-03-02T16:14:58.712Z,3.58
2023-03-02T16:17:28.605Z,3.51
2023-03-02T16:19:56.991Z,3.46
2023-03-02T16:22:25.505Z,3.38
2023-03-02T16:24:54.673Z,3.32
2023-03-02T16:27:23.156Z,3.30
2023-03-02T16:29:51.511Z,3.36
2023-03-02T16:32:19.855Z,3.33
2023-03-02T16:34:48.297Z,3.30
2023-03-02T16:37:16.622Z,3.26
2023-03-02T16:39:45.375Z,3.21
2023-03-02T16:42:14.869Z,3.16
2023-03-02T16:44:45.689Z,3.12
2023-03-02T16:47:15.128Z,3.11
2023-03-02T16:49:44.284Z,3.10
2023-03-02T16:52:12.586Z,3.05
2023-03-02T16:54:43.979Z,2.96
2023-03-02T16:57:12.429Z,2.90
2023-03-02T16:59:41.041Z,2.82
2023-03-02T17:02:10.507Z,2.76
2023-03-02T17:04:43.918Z,2.71
2023-03-02T17:07:12.862Z,2.71
2023-03-02T17:09:43.833Z,2.69
2023-03-02T17:12:12.906Z,2.69
2023-03-02T17:14:41.594Z,2.63
2023-03-02T17:17:11.535Z,2.56
2023-03-02T17:19:40.324Z,2.48
2023-03-02T17:22:09.459Z,2.39
2023-03-02T17:24:37.636Z,2.31
2023-03-02T17:27:19.075Z,2.20
2023-03-02T17:29:54.319Z,2.10
2023-03-02T17:32:23.404Z,2.06
2023-03-02T17:34:52.333Z,2.04
2023-03-02T17:37:20.680Z,2.01
2023-03-02T17:39:50.518Z,1.91
2023-03-02T17:42:19.242Z,1.79
2023-03-02T17:44:48.353Z,1.67
2023-03-02T17:47:16.566Z,1.52
2023-03-02T17:49:45.428Z,1.43
2023-03-02T17:52:18.893Z,1.36
2023-03-02T17:54:47.647Z,1.37
2023-03-02T17:57:22.034Z,1.41
2023-03-02T17:59:52.936Z,1.45
2023-03-02T18:02:21.152Z,1.43
2023-03-02T18:04:49.496Z,1.40
2023-03-02T18:07:17.922Z,1.38
2023-03-02T18:09:46.215Z,1.33
2023-03-02T18:12:17.698Z,1.25
2023-03-02T18:14:46.926Z,1.20
2023-03-02T18:17:20.094Z,1.20
2023-03-02T18:19:49.106Z,1.22
2023-03-02T18:22:17.518Z,1.22
2023-03-02T18:24:47.517Z,1.16
2023-03-02T18:27:18.588Z,1.09
2023-03-02T18:29:46.810Z,1.02
2023-03-02T18:32:15.163Z,0.93
2023-03-02T18:34:43.623Z,0.87
2023-03-02T18:37:12.474Z,0.86
2023-03-02T18:39:40.887Z,0.88
2023-03-02T18:42:12.246Z,0.89
2023-03-02T18:44:40.771Z,0.87
2023-03-02T18:47:10.006Z,0.85
2023-03-02T18:49:42.578Z,0.83
2023-03-02T18:52:13.507Z,0.80
2023-03-02T18:54:44.346Z,0.79
2023-03-02T18:57:13.952Z,0.86
2023-03-02T18:59:42.213Z,0.94
2023-03-02T19:02:13.043Z,1.01
2023-03-02T19:04:41.815Z,1.05
2023-03-02T19:07:10.728Z,1.06
2023-03-02T19:09:39.058Z,1.05
2023-03-02T19:12:09.448Z,1.04
2023-03-02T19:14:39.377Z,1.03
2023-03-02T19:17:07.824Z,1.00
2023-03-02T19:19:36.409Z,1.03
2023-03-02T19:22:09.097Z,1.06
2023-03-02T19:24:37.356Z,1.07
2023-03-02T19:27:05.593Z,0.99
2023-03-02T19:29:34.798Z,0.91
2023-03-02T19:32:03.460Z,0.82
2023-03-02T19:34:31.772Z,0.77
2023-03-02T19:37:00.880Z,0.78
2023-03-02T19:39:29.219Z,0.80
2023-03-02T19:41:57.427Z,0.79
2023-03-02T19:44:25.749Z,0.72
2023-03-02T19:46:54.068Z,0.59
2023-03-02T19:49:22.254Z,0.46
2023-03-02T19:51:50.829Z,0.37
2023-03-02T19:54:19.116Z,0.37
2023-03-02T19:56:53.352Z,0.43
2023-03-02T19:59:22.375Z,0.48
2023-03-02T20:01:55.222Z,0.49
2023-03-02T20:04:24.818Z,0.47
2023-03-02T20:06:53.873Z,0.42
2023-03-02T20:09:24.274Z,0.36
2023-03-02T20:11:53.799Z,0.39
2023-03-02T20:14:33.433Z,0.44
2023-03-02T20:17:04.388Z,0.46
2023-03-02T20:19:32.601Z,0.41
2023-03-02T20:22:02.818Z,0.36
2023-03-02T20:24:32.192Z,0.31
2023-03-02T20:27:01.135Z,0.24
2023-03-02T20:29:30.013Z,0.25
2023-03-02T20:31:58.611Z,0.28
2023-03-02T20:34:27.007Z,0.27
2023-03-02T20:36:56.021Z,0.23
2023-03-02T20:39:35.288Z,0.18
2023-03-02T20:42:04.517Z,0.13
2023-03-02T20:44:35.044Z,0.09
2023-03-02T20:47:08.434Z,0.06
2023-03-02T20:49:38.914Z,0.04
2023-03-02T20:52:07.997Z,0.01
2023-03-02T20:54:39.665Z,-0.03
2023-03-02T20:57:08.684Z,-0.08
2023-03-02T20:59:37.491Z,-0.15
2023-03-02T21:02:06.069Z,-0.21
2023-03-02T21:04:36.164Z,-0.27
2023-03-02T21:07:04.557Z,-0.28
2023-03-02T21:09:32.815Z,-0.27
2023-03-02T21:12:04.860Z,-0.29
2023-03-02T21:14:33.898Z,-0.33
2023-03-02T21:17:02.210Z,-0.41
2023-03-02T21:19:32.760Z,-0.51
2023-03-02T21:22:01.062Z,-0.60
2023-03-02T21:24:33.572Z,-0.61
2023-03-02T21:27:02.618Z,-0.62
2023-03-02T21:29:31.625Z,-0.64
2023-03-02T21:31:59.972Z,-0.69
2023-03-02T21:34:28.555Z,-0.76
2023-03-02T21:36:59.634Z,-0.82
2023-03-02T21:39:27.891Z,-0.89
2023-03-02T21:42:01.369Z,-0.87
2023-03-02T21:44:29.879Z,-0.84
2023-03-02T21:46:58.128Z,-0.81
2023-03-02T21:49:26.468Z,-0.81
2023-03-02T21:51:54.786Z,-0.88
2023-03-02T21:54:23.080Z,-0.93
2023-03-02T21:56:51.459Z,-0.98
2023-03-02T21:59:20.102Z,-0.96
2023-03-02T22:01:48.687Z,-0.93
2023-03-02T22:04:16.863Z,-0.92
2023-03-02T22:06:46.620Z,-0.93
2023-03-02T22:09:14.756Z,-0.96
2023-03-02T22:11:42.963Z,-0.97
2023-03-02T22:14:13.077Z,-0.93
2023-03-02T22:16:42.672Z,-0.89
2023-03-02T22:19:24.676Z,-0.86
2023-03-02T22:21:54.009Z,-0.89
2023-03-02T22:24:28.921Z,-0.94
2023-03-02T22:27:16.220Z,-0.97
2023-03-02T22:29:45.421Z,-0.99
2023-03-02T22:32:23.648Z,-0.94
2023-03-02T22:35:00.813Z,-0.90
2023-03-02T22:37:32.645Z,-0.90
2023-03-02T22:40:29.129Z,-0.92
2023-03-02T22:43:12.062Z,-0.97
2023-03-02T22:45:41.296Z,-1.01
2023-03-02T22:48:36.417Z,-0.96
2023-03-02T22:51:24.125Z,-0.90
2023-03-02T22:53:53.553Z,-0.86
2023-03-02T22:56:26.066Z,-0.87
2023-03-02T22:58:54.415Z,-0.89
2023-03-02T23:01:27.896Z,-0.90
2023-03-02T23:04:09.342Z,-0.88
2023-03-02T23:06:45.314Z,-0.79
2023-03-02T23:09:17.686Z,-0.69
2023-03-02T23:11:46.765Z,-0.60
2023-03-02T23:14:27.493Z,-0.53
2023-03-02T23:16:59.322Z,-0.50
2023-03-02T23:19:28.511Z,-0.49
2023-03-02T23:21:56.977Z,-0.46
2023-03-02T23:24:25.471Z,-0.38
2023-03-02T23:26:53.864Z,-0.28
2023-03-02T23:29:42.073Z,-0.16
2023-03-02T23:32:10.469Z,-0.14
2023-03-02T23:34:40.297Z,-0.11
2023-03-02T23:37:12.965Z,-0.07
2023-03-02T23:39:41.509Z,0.02
2023-03-02T23:42:09.680Z,0.10
2023-03-02T23:44:37.756Z,0.16
2023-03-02T23:47:12.166Z,0.17
2023-03-02T23:49:40.404Z,0.17
2023-03-02T23:52:08.764Z,0.17
2023-03-02T23:54:39.708Z,0.22
2023-03-02T23:57:09.133Z,0.28
2023-03-02T23:59:37.406Z,0.32
